Avondale, Washington
Current Conditions -  °F | °C
As of 5:53 AM on Sunday 23 Nov 2014 (Local Time) from KBFI Reporting Station
Overcast Overcast  
Wind Chill: 50°   Ceiling: 2600
Heat Index: 50°   Visibility: 10mi
Dew Point: 42°   Wind: 13mph
Humidity: 74%   Direction: 150°SSE
Pressure: 30.1"   Gusts: NA
Location:  47.6833°N, 122.123°W
Report Text: KBFI 231353Z 15011KT 10SM BKN026 OVC033 10/06 A3010 RMK AO2 RAB1254E04 SLP192 P0000 T01000056
Loading
Personal Weather Stations






























Interactive Weather Map New forecast layout! Learn more

10-Day Weather Forecast

Advertisements
Track Severe Weather on mobile